createdAt,value
2023-06-17T00:00:42.677Z,21.72
2023-06-17T00:03:09.843Z,21.71
2023-06-17T00:05:37.100Z,21.66
2023-06-17T00:08:03.609Z,21.60
2023-06-17T00:10:30.085Z,21.54
2023-06-17T00:12:56.889Z,21.51
2023-06-17T00:15:23.906Z,21.49
2023-06-17T00:17:51.336Z,21.49
2023-06-17T00:20:19.059Z,21.47
2023-06-17T00:22:48.332Z,21.43
2023-06-17T00:25:15.196Z,21.41
2023-06-17T00:27:41.850Z,21.38
2023-06-17T00:30:08.623Z,21.36
2023-06-17T00:32:35.293Z,21.35
2023-06-17T00:35:03.170Z,21.33
2023-06-17T00:37:29.772Z,21.28
2023-06-17T00:39:56.562Z,21.21
2023-06-17T00:42:23.285Z,21.17
2023-06-17T00:44:50.267Z,21.14
2023-06-17T00:47:17.118Z,21.06
2023-06-17T00:49:44.477Z,21.03
2023-06-17T00:52:27.357Z,20.98
2023-06-17T00:54:58.013Z,20.90
2023-06-17T00:57:24.512Z,20.80
2023-06-17T00:59:51.276Z,20.76
2023-06-17T01:02:18.671Z,20.75
2023-06-17T01:04:47.522Z,20.74
2023-06-17T01:07:28.132Z,20.72
2023-06-17T01:09:58.272Z,20.65
2023-06-17T01:12:26.408Z,20.57
2023-06-17T01:14:54.855Z,20.51
2023-06-17T01:17:21.536Z,20.49
2023-06-17T01:19:49.865Z,20.48
2023-06-17T01:22:17.364Z,20.49
2023-06-17T01:24:46.334Z,20.47
2023-06-17T01:27:13.027Z,20.47
2023-06-17T01:29:39.617Z,20.41
2023-06-17T01:32:07.548Z,20.39
2023-06-17T01:34:45.457Z,20.35
2023-06-17T01:37:12.780Z,20.26
2023-06-17T01:39:40.831Z,20.20
2023-06-17T01:42:08.680Z,20.15
2023-06-17T01:44:35.807Z,20.12
2023-06-17T01:47:03.321Z,20.06
2023-06-17T01:49:29.883Z,20.00
2023-06-17T01:51:56.366Z,19.98
2023-06-17T01:54:22.879Z,19.99
2023-06-17T01:56:49.333Z,19.97
2023-06-17T01:59:16.185Z,19.95
2023-06-17T02:01:42.836Z,19.95
2023-06-17T02:04:11.047Z,19.93
2023-06-17T02:06:40.718Z,19.89
2023-06-17T02:09:08.117Z,19.87
2023-06-17T02:11:34.567Z,19.86
2023-06-17T02:14:01.314Z,19.87
2023-06-17T02:16:27.932Z,19.83
2023-06-17T02:18:54.706Z,19.80
2023-06-17T02:21:21.266Z,19.76
2023-06-17T02:23:49.842Z,19.72
2023-06-17T02:26:19.763Z,19.67
2023-06-17T02:28:46.320Z,19.62
2023-06-17T02:31:13.980Z,19.61
2023-06-17T02:33:40.505Z,19.58
2023-06-17T02:36:07.488Z,19.54
2023-06-17T02:38:33.958Z,19.52
2023-06-17T02:41:00.558Z,19.52
2023-06-17T02:43:27.093Z,19.54
2023-06-17T02:45:53.638Z,19.51
2023-06-17T02:48:21.373Z,19.45
2023-06-17T02:50:47.871Z,19.39
2023-06-17T02:53:16.200Z,19.32
2023-06-17T02:55:46.580Z,19.24
2023-06-17T02:58:20.231Z,19.15
2023-06-17T03:00:51.374Z,19.07
2023-06-17T03:03:17.950Z,19.04
2023-06-17T03:05:44.542Z,18.97
2023-06-17T03:08:11.386Z,18.86
2023-06-17T03:10:37.916Z,18.79
2023-06-17T03:13:10.299Z,18.70
2023-06-17T03:15:42.970Z,18.66
2023-06-17T03:18:10.108Z,18.64
2023-06-17T03:20:39.139Z,18.66
2023-06-17T03:23:05.881Z,18.68
2023-06-17T03:25:32.827Z,18.66
2023-06-17T03:28:01.997Z,18.66
2023-06-17T03:30:30.150Z,18.60
2023-06-17T03:32:59.634Z,18.53
2023-06-17T03:35:26.493Z,18.54
2023-06-17T03:37:53.148Z,18.54
2023-06-17T03:40:20.386Z,18.54
2023-06-17T03:42:47.881Z,18.56
2023-06-17T03:45:14.552Z,18.57
2023-06-17T03:47:41.192Z,18.61
2023-06-17T03:50:08.866Z,18.67
2023-06-17T03:52:35.927Z,18.70
2023-06-17T03:55:02.606Z,18.75
2023-06-17T03:57:29.176Z,18.80
2023-06-17T03:59:55.796Z,18.83
2023-06-17T04:02:22.464Z,18.85
2023-06-17T04:04:49.141Z,18.87
2023-06-17T04:07:15.891Z,18.90
2023-06-17T04:09:48.203Z,18.90
2023-06-17T04:12:28.511Z,18.89
2023-06-17T04:14:55.084Z,18.87
2023-06-17T04:17:21.709Z,18.81
2023-06-17T04:19:48.968Z,18.67
2023-06-17T04:22:15.665Z,18.60
2023-06-17T04:24:42.197Z,18.57
2023-06-17T04:27:08.885Z,18.59
2023-06-17T04:29:36.045Z,18.63
2023-06-17T04:32:03.613Z,18.71
2023-06-17T04:34:32.372Z,18.76
2023-06-17T04:36:59.551Z,18.85
2023-06-17T04:39:29.824Z,18.94
2023-06-17T04:41:57.606Z,19.03
2023-06-17T04:44:24.130Z,19.09
2023-06-17T04:46:50.713Z,19.13
2023-06-17T04:49:17.954Z,19.17
2023-06-17T04:51:44.590Z,19.19
2023-06-17T04:54:11.624Z,19.24
2023-06-17T04:56:39.797Z,19.27
2023-06-17T04:59:06.301Z,19.32
2023-06-17T05:01:32.886Z,19.35
2023-06-17T05:03:59.723Z,19.35
2023-06-17T05:06:26.339Z,19.29
2023-06-17T05:08:53.225Z,19.23
2023-06-17T05:11:20.524Z,19.21
2023-06-17T05:13:47.132Z,19.19
2023-06-17T05:16:13.764Z,19.27
2023-06-17T05:18:41.625Z,19.35
2023-06-17T05:21:08.186Z,19.46
2023-06-17T05:23:34.779Z,19.50
2023-06-17T05:26:01.414Z,19.58
2023-06-17T05:28:28.522Z,19.70
2023-06-17T05:30:55.269Z,19.74
2023-06-17T05:33:22.036Z,19.70
2023-06-17T05:35:50.973Z,19.77
2023-06-17T05:38:17.509Z,19.92
2023-06-17T05:40:44.089Z,20.04
2023-06-17T05:43:10.922Z,20.13
2023-06-17T05:45:37.423Z,20.16
2023-06-17T05:48:04.680Z,20.22
2023-06-17T05:50:31.245Z,20.30
2023-06-17T05:52:59.725Z,20.29
2023-06-17T05:55:26.296Z,20.36
2023-06-17T05:57:53.308Z,20.47
2023-06-17T06:00:20.593Z,20.54
2023-06-17T06:02:47.945Z,20.60
2023-06-17T06:05:14.714Z,20.66
2023-06-17T06:07:42.397Z,20.75
2023-06-17T06:10:09.112Z,20.82
2023-06-17T06:12:40.887Z,20.94
2023-06-17T06:15:07.811Z,21.07
2023-06-17T06:17:34.654Z,21.17
2023-06-17T06:20:01.271Z,21.35
2023-06-17T06:22:27.937Z,21.53
2023-06-17T06:24:54.652Z,21.77
2023-06-17T06:27:21.292Z,21.96
2023-06-17T06:29:47.892Z,22.02
2023-06-17T06:32:15.058Z,22.06
2023-06-17T06:34:41.963Z,22.22
2023-06-17T06:37:08.497Z,22.44
2023-06-17T06:39:37.082Z,22.66
2023-06-17T06:42:03.861Z,22.87
2023-06-17T06:44:45.674Z,23.09
2023-06-17T06:47:16.199Z,23.15
2023-06-17T06:49:42.752Z,23.14
2023-06-17T06:52:09.318Z,23.19
2023-06-17T06:54:36.044Z,23.21
2023-06-17T06:57:02.979Z,23.30
2023-06-17T06:59:30.406Z,23.40
2023-06-17T07:01:57.595Z,23.43
2023-06-17T07:04:24.445Z,23.46
2023-06-17T07:06:55.740Z,23.53
2023-06-17T07:09:27.428Z,23.57
2023-06-17T07:11:54.032Z,23.78
2023-06-17T07:14:20.620Z,23.99
2023-06-17T07:16:47.198Z,24.15
2023-06-17T07:19:13.748Z,24.18
2023-06-17T07:21:40.414Z,24.31
2023-06-17T07:24:06.971Z,24.53
2023-06-17T07:26:33.576Z,24.71
2023-06-17T07:29:02.394Z,24.87
2023-06-17T07:31:32.187Z,25.00
2023-06-17T07:34:00.118Z,25.15
2023-06-17T07:36:27.288Z,25.32
2023-06-17T07:38:53.924Z,25.49
2023-06-17T07:41:21.708Z,25.64
2023-06-17T07:43:48.239Z,25.72
2023-06-17T07:46:14.957Z,25.86
2023-06-17T07:48:41.628Z,26.05
2023-06-17T07:51:08.282Z,26.16
2023-06-17T07:53:34.910Z,26.29
2023-06-17T07:56:01.748Z,26.46
2023-06-17T07:58:28.334Z,26.59
2023-06-17T08:00:54.986Z,26.77
2023-06-17T08:03:22.397Z,26.92
2023-06-17T08:05:49.125Z,27.03
2023-06-17T08:08:15.637Z,27.19
2023-06-17T08:10:42.107Z,27.26
2023-06-17T08:13:08.962Z,27.36
2023-06-17T08:15:36.349Z,27.49
2023-06-17T08:18:03.036Z,27.54
2023-06-17T08:20:29.586Z,27.53
2023-06-17T08:22:56.187Z,27.57
2023-06-17T08:25:23.190Z,27.66
2023-06-17T08:27:51.541Z,27.86
2023-06-17T08:30:18.587Z,28.08
2023-06-17T08:32:45.476Z,28.23
2023-06-17T08:35:12.057Z,28.44
2023-06-17T08:37:39.193Z,28.65
2023-06-17T08:40:06.362Z,28.78
2023-06-17T08:42:32.916Z,28.89
2023-06-17T08:44:59.963Z,28.99
2023-06-17T08:47:27.141Z,29.16
2023-06-17T08:49:59.746Z,29.31
2023-06-17T08:52:26.332Z,29.43
2023-06-17T08:54:53.592Z,29.60
2023-06-17T08:57:20.137Z,29.75
2023-06-17T08:59:46.561Z,29.86
2023-06-17T09:02:15.695Z,29.96
2023-06-17T09:04:42.372Z,30.09
2023-06-17T09:07:10.353Z,30.29
2023-06-17T09:09:37.290Z,30.45
2023-06-17T09:12:06.488Z,30.42
2023-06-17T09:14:33.528Z,30.44
2023-06-17T09:17:02.006Z,30.45
2023-06-17T09:19:30.062Z,30.44
2023-06-17T09:21:57.274Z,30.55
2023-06-17T09:24:29.080Z,30.69
2023-06-17T09:26:55.641Z,30.80
2023-06-17T09:29:22.454Z,30.94
2023-06-17T09:31:49.729Z,30.97
2023-06-17T09:34:16.360Z,30.78
2023-06-17T09:36:42.875Z,30.67
2023-06-17T09:39:09.541Z,30.57
2023-06-17T09:41:40.375Z,30.60
2023-06-17T09:44:07.194Z,30.68
2023-06-17T09:46:40.525Z,30.69
2023-06-17T09:49:07.410Z,30.73
2023-06-17T09:51:39.041Z,30.74
2023-06-17T09:54:09.409Z,30.70
2023-06-17T09:56:36.865Z,30.45
2023-06-17T09:59:04.489Z,30.48
2023-06-17T10:01:39.863Z,30.67
2023-06-17T10:04:06.906Z,31.00
2023-06-17T10:06:35.170Z,31.22
2023-06-17T10:09:03.959Z,31.31
2023-06-17T10:11:30.858Z,31.32
2023-06-17T10:13:57.813Z,31.41
2023-06-17T10:16:24.918Z,31.49
2023-06-17T10:18:52.597Z,31.56
2023-06-17T10:21:19.265Z,31.53
2023-06-17T10:23:46.009Z,31.53
2023-06-17T10:26:13.051Z,31.63
2023-06-17T10:28:43.709Z,31.85
2023-06-17T10:31:20.033Z,32.10
2023-06-17T10:33:47.231Z,32.24
2023-06-17T10:36:13.789Z,32.38
2023-06-17T10:38:40.497Z,32.55
2023-06-17T10:41:07.108Z,32.75
2023-06-17T10:43:39.585Z,32.81
2023-06-17T10:46:06.304Z,32.78
2023-06-17T10:48:37.463Z,32.79
2023-06-17T10:51:04.831Z,32.77
2023-06-17T10:53:32.070Z,32.73
2023-06-17T10:55:59.351Z,32.67
2023-06-17T10:58:30.660Z,32.67
2023-06-17T11:01:03.305Z,32.77
2023-06-17T11:03:30.322Z,32.83
2023-06-17T11:06:00.617Z,32.88
2023-06-17T11:08:28.031Z,32.86
2023-06-17T11:10:54.654Z,32.94
2023-06-17T11:13:22.485Z,33.07
2023-06-17T11:15:54.882Z,33.23
2023-06-17T11:18:21.727Z,33.40
2023-06-17T11:20:48.175Z,33.43
2023-06-17T11:23:14.731Z,33.49
2023-06-17T11:25:45.363Z,33.28
2023-06-17T11:28:12.808Z,33.03
2023-06-17T11:30:40.102Z,32.94
2023-06-17T11:33:07.918Z,32.90
2023-06-17T11:35:34.510Z,32.96
2023-06-17T11:38:01.165Z,33.08
2023-06-17T11:40:27.786Z,33.19
2023-06-17T11:42:54.270Z,33.31
2023-06-17T11:45:21.504Z,33.37
2023-06-17T11:47:48.070Z,33.39
2023-06-17T11:50:15.306Z,33.45
2023-06-17T11:52:41.982Z,33.52
2023-06-17T11:55:13.722Z,33.61
2023-06-17T11:57:40.211Z,33.43
2023-06-17T12:00:11.003Z,33.54
2023-06-17T12:02:40.992Z,33.54
2023-06-17T12:05:08.042Z,33.43
2023-06-17T12:07:39.686Z,33.46
2023-06-17T12:10:07.919Z,33.51
2023-06-17T12:12:35.174Z,33.69
2023-06-17T12:15:14.945Z,33.95
2023-06-17T12:17:46.065Z,34.04
2023-06-17T12:20:13.359Z,33.84
2023-06-17T12:22:40.184Z,33.69
2023-06-17T12:25:06.783Z,33.72
2023-06-17T12:27:33.666Z,33.84
2023-06-17T12:30:05.007Z,34.02
2023-06-17T12:32:31.609Z,34.25
2023-06-17T12:34:58.934Z,34.54
2023-06-17T12:37:27.486Z,34.74
2023-06-17T12:39:54.945Z,34.95
2023-06-17T12:42:22.587Z,35.16
2023-06-17T12:44:50.073Z,35.24
2023-06-17T12:47:16.628Z,35.44
2023-06-17T12:49:43.253Z,35.65
2023-06-17T12:52:10.037Z,35.73
2023-06-17T12:54:36.836Z,35.64
2023-06-17T12:57:04.311Z,35.36
2023-06-17T12:59:31.343Z,34.87
2023-06-17T13:01:58.076Z,34.62
2023-06-17T13:04:24.834Z,34.56
2023-06-17T13:06:51.360Z,34.55
2023-06-17T13:09:17.891Z,34.25
2023-06-17T13:11:44.692Z,33.99
2023-06-17T13:14:11.398Z,34.19
2023-06-17T13:16:38.260Z,34.51
2023-06-17T13:19:05.698Z,34.64
2023-06-17T13:21:34.803Z,34.83
2023-06-17T13:24:01.584Z,34.92
2023-06-17T13:26:29.339Z,34.91
2023-06-17T13:28:56.358Z,34.76
2023-06-17T13:31:23.080Z,34.79
2023-06-17T13:33:49.560Z,34.95
2023-06-17T13:36:16.077Z,34.83
2023-06-17T13:38:42.544Z,34.71
2023-06-17T13:41:09.088Z,34.65
2023-06-17T13:43:35.600Z,34.80
2023-06-17T13:46:02.165Z,35.08
2023-06-17T13:48:32.284Z,35.38
2023-06-17T13:50:59.408Z,35.74
2023-06-17T13:53:26.108Z,36.03
2023-06-17T13:55:53.605Z,36.00
2023-06-17T13:58:20.089Z,36.13
2023-06-17T14:00:46.685Z,35.75
2023-06-17T14:03:16.371Z,35.60
2023-06-17T14:05:44.261Z,35.55
2023-06-17T14:08:10.985Z,35.67
2023-06-17T14:10:37.588Z,35.75
2023-06-17T14:13:04.126Z,35.75
2023-06-17T14:15:30.799Z,35.60
2023-06-17T14:17:57.434Z,35.48
2023-06-17T14:20:24.357Z,35.46
2023-06-17T14:22:56.477Z,35.44
2023-06-17T14:25:23.220Z,35.20
2023-06-17T14:27:49.929Z,34.92
2023-06-17T14:30:16.512Z,34.70
2023-06-17T14:32:44.134Z,34.58
2023-06-17T14:35:11.499Z,34.45
2023-06-17T14:37:41.522Z,34.25
2023-06-17T14:40:09.170Z,34.11
2023-06-17T14:42:35.853Z,34.22
2023-06-17T14:45:02.517Z,34.32
2023-06-17T14:47:29.230Z,34.29
2023-06-17T14:49:55.827Z,34.22
2023-06-17T14:52:23.125Z,34.16
2023-06-17T14:54:50.945Z,34.10
2023-06-17T14:57:17.850Z,34.05
2023-06-17T14:59:45.583Z,33.94
2023-06-17T15:02:22.118Z,33.84
2023-06-17T15:04:48.735Z,33.65
2023-06-17T15:07:15.238Z,33.61
2023-06-17T15:09:42.046Z,33.59
2023-06-17T15:12:14.194Z,33.48
2023-06-17T15:14:41.664Z,33.39
2023-06-17T15:17:08.689Z,33.41
2023-06-17T15:19:37.106Z,33.39
2023-06-17T15:22:04.304Z,33.33
2023-06-17T15:24:31.075Z,32.29
2023-06-17T15:26:57.679Z,30.34
2023-06-17T15:29:24.669Z,28.93
2023-06-17T15:31:51.176Z,28.00
2023-06-17T15:34:18.608Z,27.47
2023-06-17T15:36:45.150Z,27.30
2023-06-17T15:39:22.271Z,27.31
2023-06-17T15:41:49.373Z,27.32
2023-06-17T15:44:16.129Z,27.35
2023-06-17T15:46:42.854Z,27.34
2023-06-17T15:49:09.514Z,27.36
2023-06-17T15:51:36.513Z,27.47
2023-06-17T15:54:03.324Z,27.57
2023-06-17T15:56:30.019Z,27.65
2023-06-17T15:58:56.616Z,27.84
2023-06-17T16:01:23.167Z,28.08
2023-06-17T16:03:49.767Z,28.28
2023-06-17T16:06:16.282Z,28.46
2023-06-17T16:08:43.504Z,28.69
2023-06-17T16:11:09.974Z,28.93
2023-06-17T16:13:37.424Z,29.10
2023-06-17T16:16:04.215Z,29.34
2023-06-17T16:18:30.774Z,29.48
2023-06-17T16:20:57.270Z,29.48
2023-06-17T16:23:23.816Z,29.81
2023-06-17T16:25:55.580Z,29.96
2023-06-17T16:28:22.626Z,30.10
2023-06-17T16:30:49.173Z,30.25
2023-06-17T16:33:15.610Z,30.37
2023-06-17T16:35:42.125Z,30.43
2023-06-17T16:38:08.940Z,30.52
2023-06-17T16:40:35.575Z,30.63
2023-06-17T16:43:02.223Z,30.64
2023-06-17T16:45:29.022Z,30.61
2023-06-17T16:47:56.575Z,30.67
2023-06-17T16:50:23.511Z,30.72
2023-06-17T16:52:50.634Z,30.78
2023-06-17T16:55:17.128Z,30.86
2023-06-17T16:57:43.567Z,30.84
2023-06-17T17:00:10.334Z,30.33
2023-06-17T17:02:36.912Z,30.74
2023-06-17T17:05:03.590Z,30.72
2023-06-17T17:07:30.098Z,30.70
2023-06-17T17:09:56.666Z,30.68
2023-06-17T17:12:23.145Z,30.63
2023-06-17T17:14:49.666Z,30.58
2023-06-17T17:17:16.174Z,30.56
2023-06-17T17:19:42.663Z,30.47
2023-06-17T17:22:09.115Z,30.45
2023-06-17T17:24:35.711Z,30.43
2023-06-17T17:27:02.333Z,30.39
2023-06-17T17:29:28.875Z,30.36
2023-06-17T17:31:55.502Z,30.30
2023-06-17T17:34:22.009Z,30.26
2023-06-17T17:36:48.562Z,30.25
2023-06-17T17:39:15.148Z,30.19
2023-06-17T17:41:41.617Z,30.13
2023-06-17T17:44:08.209Z,30.10
2023-06-17T17:46:35.000Z,30.01
2023-06-17T17:49:01.685Z,29.96
2023-06-17T17:51:28.179Z,29.96
2023-06-17T17:53:55.955Z,29.95
2023-06-17T17:56:22.529Z,29.95
2023-06-17T17:58:50.688Z,29.93
2023-06-17T18:01:17.211Z,29.87
2023-06-17T18:03:43.887Z,29.83
2023-06-17T18:06:10.670Z,29.82
2023-06-17T18:08:37.209Z,29.78
2023-06-17T18:11:03.651Z,29.72
2023-06-17T18:13:30.290Z,29.68
2023-06-17T18:15:56.848Z,29.64
2023-06-17T18:18:23.336Z,29.61
2023-06-17T18:20:49.879Z,29.56
2023-06-17T18:23:16.700Z,29.53
2023-06-17T18:25:43.181Z,29.51
2023-06-17T18:28:09.807Z,29.48
2023-06-17T18:30:36.287Z,29.41
2023-06-17T18:33:02.880Z,29.34
2023-06-17T18:35:29.739Z,29.27
2023-06-17T18:37:56.281Z,29.25
2023-06-17T18:40:23.102Z,29.20
2023-06-17T18:42:49.971Z,29.17
2023-06-17T18:45:17.210Z,29.13
2023-06-17T18:47:44.912Z,29.07
2023-06-17T18:50:11.494Z,29.01
2023-06-17T18:52:38.075Z,28.98
2023-06-17T18:55:04.789Z,28.93
2023-06-17T18:57:31.557Z,28.88
2023-06-17T19:00:00.663Z,28.81
2023-06-17T19:02:28.100Z,28.74
2023-06-17T19:04:54.879Z,28.69
2023-06-17T19:07:21.446Z,28.63
2023-06-17T19:09:51.008Z,28.56
2023-06-17T19:12:17.670Z,28.51
2023-06-17T19:14:44.305Z,28.43
2023-06-17T19:17:10.973Z,28.35
2023-06-17T19:19:37.486Z,28.28
2023-06-17T19:22:04.284Z,28.22
2023-06-17T19:24:31.117Z,28.14
2023-06-17T19:26:57.843Z,28.07
2023-06-17T19:29:24.469Z,28.00
2023-06-17T19:31:51.068Z,27.94
2023-06-17T19:34:17.690Z,27.87
2023-06-17T19:36:44.271Z,27.85
2023-06-17T19:39:10.938Z,27.77
2023-06-17T19:41:37.431Z,27.69
2023-06-17T19:44:06.084Z,27.60
2023-06-17T19:46:32.676Z,27.53
2023-06-17T19:48:59.174Z,27.42
2023-06-17T19:51:25.700Z,27.34
2023-06-17T19:53:52.335Z,27.25
2023-06-17T19:56:19.705Z,27.18
2023-06-17T19:58:46.240Z,27.10
2023-06-17T20:01:12.849Z,27.00
2023-06-17T20:03:39.396Z,26.91
2023-06-17T20:06:06.034Z,26.85
2023-06-17T20:08:32.587Z,26.75
2023-06-17T20:10:59.200Z,26.68
2023-06-17T20:13:25.783Z,26.58
2023-06-17T20:15:52.791Z,26.50
2023-06-17T20:18:19.378Z,26.41
2023-06-17T20:20:45.965Z,26.32
2023-06-17T20:23:13.001Z,26.22
2023-06-17T20:25:39.549Z,26.16
2023-06-17T20:28:06.112Z,26.09
2023-06-17T20:30:32.608Z,26.03
2023-06-17T20:32:59.101Z,25.96
2023-06-17T20:35:25.761Z,25.92
2023-06-17T20:37:52.947Z,25.88
2023-06-17T20:40:19.682Z,25.79
2023-06-17T20:42:46.387Z,25.70
2023-06-17T20:45:12.954Z,25.61
2023-06-17T20:47:39.489Z,25.57
2023-06-17T20:50:06.445Z,25.53
2023-06-17T20:52:33.014Z,25.52
2023-06-17T20:54:59.527Z,25.52
2023-06-17T20:57:25.963Z,25.49
2023-06-17T20:59:53.868Z,25.45
2023-06-17T21:02:20.809Z,25.40
2023-06-17T21:04:47.536Z,25.30
2023-06-17T21:07:14.046Z,25.21
2023-06-17T21:09:41.049Z,25.14
2023-06-17T21:12:07.649Z,25.08
2023-06-17T21:14:34.191Z,25.01
2023-06-17T21:17:00.894Z,24.93
2023-06-17T21:19:27.455Z,24.87
2023-06-17T21:21:54.025Z,24.82
2023-06-17T21:24:21.256Z,24.76
2023-06-17T21:26:47.888Z,24.70
2023-06-17T21:29:14.348Z,24.64
2023-06-17T21:31:40.966Z,24.58
2023-06-17T21:34:07.468Z,24.55
2023-06-17T21:36:34.143Z,24.52
2023-06-17T21:39:00.779Z,24.48
2023-06-17T21:41:27.359Z,24.44
2023-06-17T21:43:53.829Z,24.41
2023-06-17T21:46:23.249Z,24.35
2023-06-17T21:48:49.871Z,24.26
2023-06-17T21:51:16.346Z,24.23
2023-06-17T21:53:42.882Z,24.25
2023-06-17T21:56:09.319Z,24.25
2023-06-17T21:58:35.828Z,24.20
2023-06-17T22:01:02.402Z,24.12
2023-06-17T22:03:28.914Z,24.07
2023-06-17T22:05:55.449Z,24.00
2023-06-17T22:08:30.530Z,23.94
2023-06-17T22:11:00.950Z,23.90
2023-06-17T22:13:27.507Z,23.85
2023-06-17T22:15:54.076Z,23.86
2023-06-17T22:18:20.560Z,23.83
2023-06-17T22:20:50.043Z,23.76
2023-06-17T22:23:17.051Z,23.67
2023-06-17T22:25:43.654Z,23.59
2023-06-17T22:28:10.223Z,23.52
2023-06-17T22:30:38.401Z,23.45
2023-06-17T22:33:06.190Z,23.37
2023-06-17T22:35:32.703Z,23.31
2023-06-17T22:37:59.182Z,23.26
2023-06-17T22:40:25.948Z,23.19
2023-06-17T22:42:52.516Z,23.14
2023-06-17T22:45:19.079Z,23.07
2023-06-17T22:47:46.008Z,22.98
2023-06-17T22:50:12.516Z,22.87
2023-06-17T22:52:39.118Z,22.75
2023-06-17T22:55:06.098Z,22.67
2023-06-17T22:57:34.174Z,22.59
2023-06-17T23:00:00.707Z,22.54
2023-06-17T23:02:27.409Z,22.52
2023-06-17T23:04:54.029Z,22.47
2023-06-17T23:07:20.630Z,22.41
2023-06-17T23:09:47.073Z,22.34
2023-06-17T23:12:13.609Z,22.29
2023-06-17T23:14:40.143Z,22.26
2023-06-17T23:17:06.853Z,22.25
2023-06-17T23:19:33.419Z,22.26
2023-06-17T23:22:00.453Z,22.26
2023-06-17T23:24:27.276Z,22.26
2023-06-17T23:26:53.810Z,22.25
2023-06-17T23:29:20.787Z,22.24
2023-06-17T23:31:47.374Z,22.22
2023-06-17T23:34:14.736Z,22.21
2023-06-17T23:36:41.350Z,22.17
2023-06-17T23:39:07.814Z,22.13
2023-06-17T23:41:34.339Z,22.12
2023-06-17T23:44:00.875Z,22.12
2023-06-17T23:46:27.912Z,22.11
2023-06-17T23:48:54.831Z,22.06
2023-06-17T23:51:21.772Z,21.99
2023-06-17T23:53:48.502Z,21.92
2023-06-17T23:56:15.088Z,21.85
2023-06-17T23:58:41.623Z,21.77
